createdAt,value
2019-03-22T00:02:26.783Z,60492.39
2019-03-22T00:04:55.464Z,60481.21
2019-03-22T00:07:23.928Z,60477.15
2019-03-22T00:09:52.439Z,60477.15
2019-03-22T00:12:20.929Z,60526.95
2019-03-22T00:14:49.319Z,60511.70
2019-03-22T00:17:17.906Z,60511.70
2019-03-22T00:19:46.330Z,60501.54
2019-03-22T00:22:15.153Z,60470.04
2019-03-22T00:24:44.446Z,60470.04
2019-03-22T00:27:16.799Z,60471.05
2019-03-22T00:29:43.197Z,60471.05
2019-03-22T00:32:11.938Z,60479.18
2019-03-22T00:34:40.335Z,60479.18
2019-03-22T00:37:08.716Z,60492.39
2019-03-22T00:39:37.105Z,60477.15
2019-03-22T00:42:05.518Z,60477.15
2019-03-22T00:44:33.906Z,60469.02
2019-03-22T00:47:02.549Z,60488.33
2019-03-22T00:49:30.980Z,60464.96
2019-03-22T00:51:59.455Z,60490.36
2019-03-22T00:54:28.267Z,60491.38
2019-03-22T00:56:56.673Z,60491.38
2019-03-22T00:59:25.360Z,60487.31
2019-03-22T01:01:54.120Z,60470.04
2019-03-22T01:04:22.519Z,60470.04
2019-03-22T01:06:51.156Z,60507.64
2019-03-22T01:09:19.989Z,60498.49
2019-03-22T01:11:48.381Z,60498.49
2019-03-22T01:14:17.256Z,60494.43
2019-03-22T01:16:46.033Z,60478.16
2019-03-22T01:19:14.544Z,60508.65
2019-03-22T01:21:43.022Z,60508.65
2019-03-22T01:24:11.594Z,60495.44
2019-03-22T01:26:40.267Z,60509.67
2019-03-22T01:29:08.764Z,60497.47
2019-03-22T01:31:37.210Z,60500.52
2019-03-22T01:34:05.928Z,60470.04
2019-03-22T01:36:34.445Z,60480.20
2019-03-22T01:39:02.946Z,60499.50
2019-03-22T01:41:31.683Z,60499.50
2019-03-22T01:44:00.068Z,60509.67
2019-03-22T01:46:28.457Z,60492.39
2019-03-22T01:48:56.846Z,60527.96
2019-03-22T01:51:25.337Z,60527.96
2019-03-22T01:53:53.725Z,60503.57
2019-03-22T01:56:22.457Z,60505.60
2019-03-22T01:58:51.149Z,60521.86
2019-03-22T02:01:19.611Z,60486.29
2019-03-22T02:03:48.410Z,60478.16
2019-03-22T02:06:16.818Z,60500.52
2019-03-22T02:08:45.212Z,60498.49
2019-03-22T02:11:13.743Z,60509.67
2019-03-22T02:13:42.228Z,60519.83
2019-03-22T02:16:10.712Z,60519.83
2019-03-22T02:18:39.181Z,60515.77
2019-03-22T02:21:07.651Z,60496.46
2019-03-22T02:23:36.669Z,60514.75
2019-03-22T02:26:05.061Z,60522.88
2019-03-22T02:28:33.456Z,60549.30
2019-03-22T02:31:02.119Z,60510.68
2019-03-22T02:33:30.729Z,60522.88
2019-03-22T02:35:59.118Z,60480.20
2019-03-22T02:38:27.496Z,60519.83
2019-03-22T02:40:55.897Z,60506.62
2019-03-22T02:43:24.625Z,60506.62
2019-03-22T02:45:53.015Z,60532.02
2019-03-22T02:48:21.894Z,60492.39
2019-03-22T02:50:50.288Z,60524.91
2019-03-22T02:53:18.685Z,60515.77
2019-03-22T02:55:47.107Z,60518.82
2019-03-22T02:58:22.128Z,60518.82
2019-03-22T03:00:45.604Z,60499.50
2019-03-22T03:03:13.983Z,60494.43
2019-03-22T03:05:42.393Z,60517.80
2019-03-22T03:08:10.860Z,60519.83
2019-03-22T03:10:39.253Z,60519.83
2019-03-22T03:13:07.648Z,60496.46
2019-03-22T03:15:36.105Z,60479.18
2019-03-22T03:18:04.628Z,60519.83
2019-03-22T03:20:33.029Z,60482.23
2019-03-22T03:23:01.762Z,60519.83
2019-03-22T03:25:30.189Z,60519.83
2019-03-22T03:27:58.671Z,60524.91
2019-03-22T03:30:27.064Z,60526.95
2019-03-22T03:32:55.799Z,60511.70
2019-03-22T03:35:24.298Z,60522.88
2019-03-22T03:37:53.065Z,60510.68
2019-03-22T03:40:21.531Z,60517.80
2019-03-22T03:42:50.156Z,60517.80
2019-03-22T03:45:27.927Z,60478.16
2019-03-22T03:47:56.388Z,60477.15
2019-03-22T03:50:25.113Z,60531.01
2019-03-22T03:52:53.495Z,60521.86
2019-03-22T03:55:21.889Z,60538.12
2019-03-22T03:57:50.651Z,60498.49
2019-03-22T04:00:19.382Z,60542.19
2019-03-22T04:02:47.769Z,60521.86
2019-03-22T04:05:16.165Z,60513.73
2019-03-22T04:07:44.870Z,60545.23
2019-03-22T04:10:13.662Z,60509.67
2019-03-22T04:12:42.343Z,60561.50
2019-03-22T04:15:11.684Z,60516.78
2019-03-22T04:17:40.065Z,60537.11
2019-03-22T04:20:08.737Z,60535.07
2019-03-22T04:22:37.172Z,60556.41
2019-03-22T04:25:07.214Z,60556.41
2019-03-22T04:27:35.694Z,60520.85
2019-03-22T04:30:05.862Z,60515.77
2019-03-22T04:32:34.474Z,60538.12
2019-03-22T04:35:03.429Z,60543.20
2019-03-22T04:37:32.020Z,60535.07
2019-03-22T04:40:00.539Z,60537.11
2019-03-22T04:42:29.122Z,60502.55
2019-03-22T04:44:57.622Z,60522.88
2019-03-22T04:47:26.699Z,60532.02
2019-03-22T04:49:55.837Z,60557.43
2019-03-22T04:52:26.355Z,60506.62
2019-03-22T04:54:58.065Z,60515.77
2019-03-22T04:57:27.886Z,60523.89
2019-03-22T04:59:58.272Z,60539.14
2019-03-22T05:02:28.007Z,60566.57
2019-03-22T05:04:57.037Z,60546.25
2019-03-22T05:07:25.520Z,60544.22
2019-03-22T05:09:54.954Z,60529.99
2019-03-22T05:12:25.105Z,60538.12
2019-03-22T05:14:55.885Z,60538.12
2019-03-22T05:17:25.315Z,60559.46
2019-03-22T05:19:56.041Z,60532.02
2019-03-22T05:22:26.976Z,60557.43
2019-03-22T05:24:57.714Z,60557.43
2019-03-22T05:27:27.447Z,60540.15
2019-03-22T05:29:58.393Z,60526.95
2019-03-22T05:32:26.808Z,60536.09
2019-03-22T05:34:55.207Z,60552.35
2019-03-22T05:37:24.201Z,60531.01
2019-03-22T05:39:52.604Z,60559.46
2019-03-22T05:42:20.990Z,60525.93
2019-03-22T05:44:49.379Z,60527.96
2019-03-22T05:47:17.761Z,60541.17
2019-03-22T05:49:46.167Z,60516.78
2019-03-22T05:52:14.549Z,60536.09
2019-03-22T05:54:43.007Z,60518.82
2019-03-22T05:57:13.723Z,60510.68
2019-03-22T05:59:43.108Z,60550.32
2019-03-22T06:02:11.725Z,60547.27
2019-03-22T06:04:40.132Z,60536.09
2019-03-22T06:07:08.519Z,60539.14
2019-03-22T06:09:36.925Z,60498.49
2019-03-22T06:12:05.421Z,60544.22
2019-03-22T06:14:33.918Z,60533.04
2019-03-22T06:17:02.666Z,60532.02
2019-03-22T06:19:31.046Z,60527.96
2019-03-22T06:21:59.527Z,60556.41
2019-03-22T06:24:27.919Z,60531.01
2019-03-22T06:26:56.358Z,60524.91
2019-03-22T06:29:24.742Z,60538.12
2019-03-22T06:31:53.126Z,60518.82
2019-03-22T06:34:21.829Z,60522.88
2019-03-22T06:36:50.525Z,60521.86
2019-03-22T06:39:18.928Z,60525.93
2019-03-22T06:41:47.586Z,60535.07
2019-03-22T06:44:15.989Z,60529.99
2019-03-22T06:46:44.650Z,60540.15
2019-03-22T06:49:13.048Z,60519.83
2019-03-22T06:51:41.625Z,60525.93
2019-03-22T06:54:10.302Z,60525.93
2019-03-22T06:56:38.897Z,60528.98
2019-03-22T06:59:07.668Z,60543.20
2019-03-22T07:01:36.058Z,60524.91
2019-03-22T07:04:04.516Z,60525.93
2019-03-22T07:06:32.918Z,60535.07
2019-03-22T07:09:01.303Z,60524.91
2019-03-22T07:11:29.795Z,60529.99
2019-03-22T07:13:58.267Z,60488.33
2019-03-22T07:16:26.709Z,60549.30
2019-03-22T07:18:55.523Z,60549.30
2019-03-22T07:21:23.912Z,60511.70
2019-03-22T07:23:52.469Z,60505.60
2019-03-22T07:26:20.875Z,60519.83
2019-03-22T07:28:49.643Z,60517.80
2019-03-22T07:31:18.262Z,60503.57
2019-03-22T07:33:46.659Z,60503.57
2019-03-22T07:36:15.048Z,60518.82
2019-03-22T07:38:43.466Z,60525.93
2019-03-22T07:41:11.875Z,60503.57
2019-03-22T07:43:40.247Z,60509.67
2019-03-22T07:46:08.655Z,60523.89
2019-03-22T07:48:37.037Z,60494.43
2019-03-22T07:51:05.980Z,60541.17
2019-03-22T07:53:34.373Z,60485.28
2019-03-22T07:56:02.837Z,60485.28
2019-03-22T07:58:31.529Z,60540.15
2019-03-22T08:01:00.217Z,60507.64
2019-03-22T08:03:28.702Z,60507.64
2019-03-22T08:05:57.196Z,60504.59
2019-03-22T08:08:26.066Z,60504.59
2019-03-22T08:10:54.549Z,60515.77
2019-03-22T08:13:22.961Z,60498.49
2019-03-22T08:15:51.354Z,60484.26
2019-03-22T08:18:19.719Z,60499.50
2019-03-22T08:20:48.262Z,60510.68
2019-03-22T08:23:22.677Z,60510.68
2019-03-22T08:25:51.524Z,60507.64
2019-03-22T08:28:19.924Z,60502.55
2019-03-22T08:30:48.316Z,60475.12
2019-03-22T08:33:17.362Z,60518.82
2019-03-22T08:35:45.743Z,60509.67
2019-03-22T08:38:14.188Z,60508.65
2019-03-22T08:40:42.644Z,60479.18
2019-03-22T08:43:11.074Z,60488.33
2019-03-22T08:45:40.362Z,60492.39
2019-03-22T08:48:08.749Z,60505.60
2019-03-22T08:50:37.265Z,60465.97
2019-03-22T08:53:05.906Z,60483.25
2019-03-22T08:55:34.295Z,60502.55
2019-03-22T08:58:02.758Z,60474.10
2019-03-22T09:00:39.158Z,60485.28
2019-03-22T09:03:01.268Z,60475.12
2019-03-22T09:05:29.895Z,60462.92
2019-03-22T09:07:58.267Z,60481.21
2019-03-22T09:10:26.755Z,60478.16
2019-03-22T09:12:55.205Z,60448.70
2019-03-22T09:15:24.075Z,60480.20
2019-03-22T09:17:52.764Z,60450.73
2019-03-22T09:20:21.291Z,60466.99
2019-03-22T09:22:49.686Z,60466.99
2019-03-22T09:25:18.052Z,60447.68
2019-03-22T09:27:46.840Z,60454.79
2019-03-22T09:30:15.677Z,60436.50
2019-03-22T09:32:44.074Z,60430.40
2019-03-22T09:35:12.478Z,60430.40
2019-03-22T09:37:43.103Z,60439.55
2019-03-22T09:40:11.966Z,60434.47
2019-03-22T09:42:40.433Z,60422.27
2019-03-22T09:45:10.443Z,60388.74
2019-03-22T09:47:39.013Z,60432.44
2019-03-22T09:50:09.965Z,60412.11
2019-03-22T09:52:38.373Z,60383.66
2019-03-22T09:55:13.432Z,60410.08
2019-03-22T09:57:37.092Z,60393.82
2019-03-22T10:00:08.681Z,60371.46
2019-03-22T10:02:37.086Z,60382.64
2019-03-22T10:05:07.206Z,60377.56
2019-03-22T10:07:35.621Z,60355.21
2019-03-22T10:10:06.665Z,60355.21
2019-03-22T10:12:35.054Z,60333.87
2019-03-22T10:15:04.737Z,60339.96
2019-03-22T10:17:33.173Z,60335.90
2019-03-22T10:20:02.332Z,60336.91
2019-03-22T10:22:30.752Z,60324.72
2019-03-22T10:24:59.131Z,60337.93
2019-03-22T10:27:27.567Z,60307.45
2019-03-22T10:29:55.904Z,60321.67
2019-03-22T10:32:24.387Z,60310.50
2019-03-22T10:34:52.771Z,60315.57
2019-03-22T10:37:21.530Z,60330.82
2019-03-22T10:39:50.304Z,60337.93
2019-03-22T10:42:18.729Z,60347.08
2019-03-22T10:44:47.165Z,60327.77
2019-03-22T10:47:18.110Z,60305.41
2019-03-22T10:49:45.991Z,60298.30
2019-03-22T10:52:14.646Z,60314.56
2019-03-22T10:54:43.380Z,60314.56
2019-03-22T10:57:11.805Z,60297.29
2019-03-22T10:59:40.191Z,60305.41
2019-03-22T11:02:09.330Z,60296.27
2019-03-22T11:04:37.731Z,60310.50
2019-03-22T11:07:06.120Z,60302.37
2019-03-22T11:09:34.628Z,60280.01
2019-03-22T11:12:11.908Z,60306.43
2019-03-22T11:14:33.911Z,60306.43
2019-03-22T11:17:02.318Z,60289.16
2019-03-22T11:19:30.707Z,60275.95
2019-03-22T11:21:59.254Z,60292.21
2019-03-22T11:24:28.050Z,60266.80
2019-03-22T11:26:56.733Z,60282.04
2019-03-22T11:29:25.422Z,60260.71
2019-03-22T11:31:53.845Z,60260.71
2019-03-22T11:34:22.225Z,60260.71
2019-03-22T11:36:50.609Z,60271.88
2019-03-22T11:39:19.012Z,60262.74
2019-03-22T11:41:47.719Z,60264.77
2019-03-22T11:44:16.417Z,60264.77
2019-03-22T11:46:44.938Z,60278.99
2019-03-22T11:49:13.327Z,60242.41
2019-03-22T11:51:42.059Z,60278.99
2019-03-22T11:54:10.450Z,60295.25
2019-03-22T11:56:38.837Z,60267.82
2019-03-22T11:59:07.246Z,60262.74
2019-03-22T12:01:35.881Z,60259.69
2019-03-22T12:04:04.772Z,60256.64
2019-03-22T12:06:33.188Z,60249.53
2019-03-22T12:09:01.576Z,60253.59
2019-03-22T12:11:29.993Z,60265.79
2019-03-22T12:13:58.364Z,60249.53
2019-03-22T12:16:26.764Z,60270.87
2019-03-22T12:18:55.154Z,60251.56
2019-03-22T12:21:23.578Z,60268.83
2019-03-22T12:23:52.319Z,60251.56
2019-03-22T12:26:21.038Z,60242.41
2019-03-22T12:28:49.438Z,60253.59
2019-03-22T12:31:19.501Z,60269.85
2019-03-22T12:33:48.086Z,60256.64
2019-03-22T12:36:16.779Z,60247.49
2019-03-22T12:38:45.458Z,60258.67
2019-03-22T12:41:14.145Z,60275.95
2019-03-22T12:43:42.833Z,60265.79
2019-03-22T12:46:11.236Z,60260.71
2019-03-22T12:48:39.647Z,60276.96
2019-03-22T12:51:08.025Z,60260.71
2019-03-22T12:53:36.406Z,60284.07
2019-03-22T12:56:05.260Z,60274.93
2019-03-22T12:58:33.652Z,60270.87
2019-03-22T13:01:02.106Z,60273.91
2019-03-22T13:03:30.497Z,60283.06
2019-03-22T13:05:59.164Z,60272.90
2019-03-22T13:08:27.631Z,60271.88
2019-03-22T13:10:56.011Z,60287.12
2019-03-22T13:13:24.388Z,60304.40
2019-03-22T13:15:52.907Z,60288.14
2019-03-22T13:18:21.379Z,60285.09
2019-03-22T13:20:51.181Z,60293.22
2019-03-22T13:23:19.835Z,60270.87
2019-03-22T13:25:48.219Z,60267.82
2019-03-22T13:28:16.699Z,60284.07
2019-03-22T13:30:45.111Z,60271.88
2019-03-22T13:33:13.488Z,60273.91
2019-03-22T13:35:41.959Z,60267.82
2019-03-22T13:38:10.643Z,60257.66
2019-03-22T13:40:39.968Z,60278.99
2019-03-22T13:43:08.365Z,60276.96
2019-03-22T13:45:36.747Z,60275.95
2019-03-22T13:48:05.443Z,60283.06
2019-03-22T13:50:34.322Z,60268.83
2019-03-22T13:53:02.682Z,60282.04
2019-03-22T13:55:31.155Z,60268.83
2019-03-22T13:57:59.649Z,60260.71
2019-03-22T14:00:28.414Z,60256.64
2019-03-22T14:03:03.064Z,60289.16
2019-03-22T14:05:28.741Z,60285.09
2019-03-22T14:07:57.445Z,60281.03
2019-03-22T14:10:35.025Z,60287.12
2019-03-22T14:13:05.585Z,60303.38
2019-03-22T14:15:35.946Z,60291.19
2019-03-22T14:18:05.468Z,60271.88
2019-03-22T14:20:33.952Z,60297.29
2019-03-22T14:23:02.434Z,60278.99
2019-03-22T14:25:30.827Z,60292.21
2019-03-22T14:27:59.306Z,60311.51
2019-03-22T14:30:27.676Z,60305.41
2019-03-22T14:32:56.063Z,60283.06
2019-03-22T14:35:24.481Z,60298.30
2019-03-22T14:37:52.865Z,60282.04
2019-03-22T14:40:21.250Z,60290.17
2019-03-22T14:42:49.638Z,60296.27
2019-03-22T14:45:18.014Z,60297.29
2019-03-22T14:47:46.583Z,60290.17
2019-03-22T14:50:15.030Z,60293.22
2019-03-22T14:52:43.411Z,60302.37
2019-03-22T14:55:12.076Z,60309.48
2019-03-22T14:57:49.172Z,60280.01
2019-03-22T15:00:12.551Z,60292.21
2019-03-22T15:02:41.030Z,60299.32
2019-03-22T15:05:09.424Z,60295.25
2019-03-22T15:07:37.867Z,60308.46
2019-03-22T15:10:09.452Z,60276.96
2019-03-22T15:12:37.970Z,60314.56
2019-03-22T15:15:13.571Z,60290.17
2019-03-22T15:17:45.991Z,60295.25
2019-03-22T15:20:34.680Z,60298.30
2019-03-22T15:23:07.576Z,60289.16
2019-03-22T15:25:37.589Z,60290.17
2019-03-22T15:28:10.343Z,60310.50
2019-03-22T15:30:56.673Z,60296.27
2019-03-22T15:33:34.214Z,60304.40
2019-03-22T15:36:15.169Z,60312.53
2019-03-22T15:38:45.604Z,60300.34
2019-03-22T15:41:14.055Z,60317.61
2019-03-22T15:43:42.441Z,60298.30
2019-03-22T15:46:10.815Z,60307.45
2019-03-22T15:48:39.194Z,60300.34
2019-03-22T15:51:07.583Z,60303.38
2019-03-22T15:53:36.375Z,60321.67
2019-03-22T15:56:05.162Z,60297.29
2019-03-22T15:58:33.955Z,60307.45
2019-03-22T16:01:02.424Z,60313.54
2019-03-22T16:03:32.526Z,60308.46
2019-03-22T16:06:01.132Z,60306.43
2019-03-22T16:08:29.510Z,60316.59
2019-03-22T16:10:57.904Z,60316.59
2019-03-22T16:13:26.489Z,60304.40
2019-03-22T16:15:58.068Z,60327.77
2019-03-22T16:18:28.359Z,60311.51
2019-03-22T16:21:00.055Z,60343.01
2019-03-22T16:23:30.279Z,60315.57
2019-03-22T16:25:58.711Z,60327.77
2019-03-22T16:28:27.483Z,60331.84
2019-03-22T16:30:55.882Z,60321.67
2019-03-22T16:33:24.266Z,60322.69
2019-03-22T16:35:55.291Z,60314.56
2019-03-22T16:38:24.296Z,60329.80
2019-03-22T16:40:52.853Z,60319.64
2019-03-22T16:43:21.243Z,60336.91
2019-03-22T16:45:49.716Z,60308.46
2019-03-22T16:48:18.434Z,60325.74
2019-03-22T16:50:46.847Z,60312.53
2019-03-22T16:53:15.228Z,60314.56
2019-03-22T16:55:43.614Z,60352.16
2019-03-22T16:58:12.120Z,60348.09
2019-03-22T17:00:40.626Z,60333.87
2019-03-22T17:03:11.589Z,60329.80
2019-03-22T17:05:40.251Z,60353.18
2019-03-22T17:08:08.806Z,60294.24
2019-03-22T17:10:37.946Z,60327.77
2019-03-22T17:13:06.408Z,60349.11
2019-03-22T17:15:34.846Z,60340.98
2019-03-22T17:18:03.510Z,60344.03
2019-03-22T17:20:31.892Z,60315.57
2019-03-22T17:23:00.355Z,60361.30
2019-03-22T17:25:29.138Z,60342.00
2019-03-22T17:27:57.769Z,60338.95
2019-03-22T17:30:26.409Z,60353.18
2019-03-22T17:32:54.815Z,60332.85
2019-03-22T17:35:23.489Z,60352.16
2019-03-22T17:37:51.866Z,60350.12
2019-03-22T17:40:20.254Z,60347.08
2019-03-22T17:42:48.720Z,60331.84
2019-03-22T17:45:18.353Z,60375.53
2019-03-22T17:47:46.979Z,60367.40
2019-03-22T17:50:16.511Z,60364.35
2019-03-22T17:52:44.888Z,60353.18
2019-03-22T17:55:13.712Z,60379.59
2019-03-22T17:57:42.365Z,60372.48
2019-03-22T18:00:18.122Z,60349.11
2019-03-22T18:02:46.830Z,60359.27
2019-03-22T18:05:15.651Z,60368.42
2019-03-22T18:07:44.080Z,60372.48
2019-03-22T18:10:12.895Z,60339.96
2019-03-22T18:12:41.299Z,60365.37
2019-03-22T18:15:13.933Z,60382.64
2019-03-22T18:17:42.315Z,60377.56
2019-03-22T18:20:13.461Z,60379.59
2019-03-22T18:22:42.024Z,60376.55
2019-03-22T18:25:11.341Z,60378.58
2019-03-22T18:27:40.114Z,60373.50
2019-03-22T18:30:10.854Z,60375.53
2019-03-22T18:32:39.231Z,60376.55
2019-03-22T18:35:08.438Z,60394.84
2019-03-22T18:37:37.036Z,60375.53
2019-03-22T18:40:08.426Z,60402.97
2019-03-22T18:42:36.853Z,60367.40
2019-03-22T18:45:08.271Z,60365.37
2019-03-22T18:47:36.779Z,60395.86
2019-03-22T18:50:09.862Z,60379.59
2019-03-22T18:52:38.323Z,60364.35
2019-03-22T18:55:08.161Z,60397.89
2019-03-22T18:57:37.154Z,60369.43
2019-03-22T19:00:08.633Z,60381.63
2019-03-22T19:02:37.019Z,60394.84
2019-03-22T19:05:07.351Z,60391.79
2019-03-22T19:07:35.916Z,60389.76
2019-03-22T19:10:07.043Z,60401.95
2019-03-22T19:12:35.425Z,60395.86
2019-03-22T19:15:05.796Z,60387.72
2019-03-22T19:17:34.261Z,60382.64
2019-03-22T19:20:02.639Z,60389.76
2019-03-22T19:22:31.059Z,60409.07
2019-03-22T19:24:59.460Z,60410.08
2019-03-22T19:27:27.844Z,60419.23
2019-03-22T19:29:56.271Z,60405.00
2019-03-22T19:32:24.642Z,60389.76
2019-03-22T19:34:54.559Z,60415.16
2019-03-22T19:37:23.432Z,60399.92
2019-03-22T19:39:52.092Z,60414.14
2019-03-22T19:42:20.572Z,60420.24
2019-03-22T19:44:48.995Z,60414.14
2019-03-22T19:47:17.424Z,60420.24
2019-03-22T19:49:45.905Z,60434.47
2019-03-22T19:52:14.342Z,60392.80
2019-03-22T19:54:42.864Z,60401.95
2019-03-22T19:57:11.566Z,60395.86
2019-03-22T19:59:39.965Z,60398.90
2019-03-22T20:02:08.346Z,60425.32
2019-03-22T20:04:36.758Z,60396.87
2019-03-22T20:07:05.386Z,60414.14
2019-03-22T20:09:33.765Z,60415.16
2019-03-22T20:12:02.659Z,60407.03
2019-03-22T20:14:31.348Z,60423.29
2019-03-22T20:16:59.737Z,60442.60
2019-03-22T20:19:28.230Z,60386.71
2019-03-22T20:21:56.607Z,60402.97
2019-03-22T20:24:24.990Z,60431.42
2019-03-22T20:26:53.383Z,60431.42
2019-03-22T20:29:21.783Z,60429.39
2019-03-22T20:31:50.175Z,60438.53
2019-03-22T20:34:18.560Z,60419.23
2019-03-22T20:36:46.956Z,60418.21
2019-03-22T20:39:15.411Z,60430.40
2019-03-22T20:41:43.803Z,60410.08
2019-03-22T20:44:12.266Z,60416.18
2019-03-22T20:46:40.708Z,60400.93
2019-03-22T20:49:09.082Z,60416.18
2019-03-22T20:51:37.885Z,60418.21
2019-03-22T20:54:06.291Z,60411.10
2019-03-22T20:56:34.671Z,60426.34
2019-03-22T20:59:03.068Z,60412.11
2019-03-22T21:01:32.086Z,60430.40
2019-03-22T21:04:00.597Z,60413.13
2019-03-22T21:06:29.378Z,60424.31
2019-03-22T21:08:58.057Z,60455.81
2019-03-22T21:11:26.439Z,60430.40
2019-03-22T21:13:56.501Z,60438.53
2019-03-22T21:16:25.144Z,60428.37
2019-03-22T21:18:53.526Z,60417.20
2019-03-22T21:21:25.388Z,60446.66
2019-03-22T21:23:52.522Z,60423.29
2019-03-22T21:26:21.700Z,60431.42
2019-03-22T21:28:50.524Z,60440.57
2019-03-22T21:31:18.908Z,60423.29
2019-03-22T21:33:47.328Z,60438.53
2019-03-22T21:36:16.979Z,60433.45
2019-03-22T21:38:45.651Z,60430.40
2019-03-22T21:41:14.062Z,60439.55
2019-03-22T21:43:42.527Z,60425.32
2019-03-22T21:46:10.923Z,60435.48
2019-03-22T21:48:39.786Z,60423.29
2019-03-22T21:51:08.176Z,60437.52
2019-03-22T21:53:36.659Z,60414.14
2019-03-22T21:56:05.131Z,60432.44
2019-03-22T21:58:33.590Z,60430.40
2019-03-22T22:01:02.398Z,60439.55
2019-03-22T22:03:30.888Z,60434.47
2019-03-22T22:05:59.272Z,60424.31
2019-03-22T22:08:27.682Z,60445.65
2019-03-22T22:11:00.046Z,60419.23
2019-03-22T22:13:26.744Z,60431.42
2019-03-22T22:15:55.225Z,60423.29
2019-03-22T22:18:23.629Z,60409.07
2019-03-22T22:20:52.292Z,60397.89
2019-03-22T22:23:20.742Z,60426.34
2019-03-22T22:25:49.669Z,60460.89
2019-03-22T22:28:18.395Z,60439.55
2019-03-22T22:30:46.744Z,60447.68
2019-03-22T22:33:15.236Z,60440.57
2019-03-22T22:35:44.104Z,60439.55
2019-03-22T22:38:12.606Z,60439.55
2019-03-22T22:40:41.011Z,60458.86
2019-03-22T22:43:09.400Z,60448.70
2019-03-22T22:45:37.865Z,60445.65
2019-03-22T22:48:06.281Z,60442.60
2019-03-22T22:50:34.767Z,60439.55
2019-03-22T22:53:03.167Z,60439.55
2019-03-22T22:55:31.960Z,60460.89
2019-03-22T22:58:00.351Z,60439.55
2019-03-22T23:00:29.171Z,60436.50
2019-03-22T23:02:58.233Z,60437.52
2019-03-22T23:05:27.004Z,60425.32
2019-03-22T23:07:55.459Z,60470.04
2019-03-22T23:10:23.961Z,60442.60
2019-03-22T23:12:52.533Z,60457.84
2019-03-22T23:15:20.959Z,60494.43
2019-03-22T23:17:49.342Z,60452.76
2019-03-22T23:20:17.739Z,60473.09
2019-03-22T23:22:46.581Z,60470.04
2019-03-22T23:25:15.375Z,60436.50
2019-03-22T23:27:44.057Z,60475.12
2019-03-22T23:30:13.405Z,60443.61
2019-03-22T23:32:41.798Z,60454.79
2019-03-22T23:35:10.505Z,60460.89
2019-03-22T23:37:39.213Z,60460.89
2019-03-22T23:40:08.333Z,60462.92
2019-03-22T23:42:36.727Z,60463.94
2019-03-22T23:45:10.031Z,60478.16
2019-03-22T23:47:38.772Z,60451.75
2019-03-22T23:50:10.845Z,60433.45
2019-03-22T23:52:39.488Z,60436.50
2019-03-22T23:55:08.095Z,60475.12
2019-03-22T23:57:36.512Z,60481.21
